createdAt,value
2022-12-23T00:01:01.502Z,178.01
2022-12-23T00:04:08.745Z,190.53
2022-12-23T00:07:15.423Z,194.56
2022-12-23T00:10:21.429Z,181.64
2022-12-23T00:13:43.000Z,180.47
2022-12-23T00:16:51.904Z,182.97
2022-12-23T00:19:58.587Z,189.44
2022-12-23T00:23:10.404Z,196.35
2022-12-23T00:26:20.470Z,202.43
2022-12-23T00:29:26.493Z,203.52
2022-12-23T00:32:35.830Z,196.94
2022-12-23T00:35:41.531Z,193.78
2022-12-23T00:39:01.023Z,191.96
2022-12-23T00:42:19.320Z,188.92
2022-12-23T00:45:26.097Z,197.64
2022-12-23T00:48:47.055Z,196.37
2022-12-23T00:51:53.621Z,191.47
2022-12-23T00:54:59.428Z,200.45
2022-12-23T00:58:06.206Z,192.88
2022-12-23T01:01:24.437Z,191.11
2022-12-23T01:04:45.954Z,192.14
2022-12-23T01:07:51.887Z,188.50
2022-12-23T01:10:58.799Z,191.60
2022-12-23T01:14:04.819Z,192.90
2022-12-23T01:17:11.993Z,191.93
2022-12-23T01:20:20.681Z,189.08
2022-12-23T01:23:27.270Z,190.18
2022-12-23T01:26:33.113Z,190.52
2022-12-23T01:29:39.843Z,199.18
2022-12-23T01:32:45.726Z,214.72
2022-12-23T01:35:54.923Z,212.02
2022-12-23T01:39:00.762Z,214.79
2022-12-23T01:42:21.910Z,219.04
2022-12-23T01:53:34.632Z,238.71
2022-12-23T02:00:47.550Z,243.97
2022-12-23T02:04:01.648Z,259.58
2022-12-23T02:07:23.422Z,260.45
2022-12-23T02:11:06.440Z,266.48
2022-12-23T02:14:48.698Z,264.72
2022-12-23T02:18:16.098Z,265.50
2022-12-23T02:22:08.223Z,259.91
2022-12-23T02:25:57.727Z,257.68
2022-12-23T02:29:46.653Z,249.61
2022-12-23T02:33:23.543Z,247.00
2022-12-23T02:36:48.248Z,245.10
2022-12-23T02:40:07.952Z,238.47
2022-12-23T02:43:29.943Z,220.83
2022-12-23T02:46:45.395Z,209.92
2022-12-23T02:50:05.648Z,206.16
2022-12-23T02:53:21.912Z,206.28
2022-12-23T02:56:35.350Z,206.39
2022-12-23T02:59:51.828Z,202.26
2022-12-23T03:02:59.475Z,197.23
2022-12-23T03:06:24.037Z,189.31
2022-12-23T03:09:49.924Z,185.85
2022-12-23T03:13:20.045Z,188.73
2022-12-23T03:16:34.913Z,186.41
2022-12-23T03:19:54.740Z,180.37
2022-12-23T03:23:18.859Z,192.32
2022-12-23T03:26:42.068Z,183.92
2022-12-23T03:30:04.044Z,184.80
2022-12-23T03:33:18.957Z,184.49
2022-12-23T03:36:34.763Z,186.80
2022-12-23T03:39:52.501Z,180.43
2022-12-23T03:43:07.720Z,179.44
2022-12-23T03:46:23.106Z,185.18
2022-12-23T03:49:38.897Z,188.06
2022-12-23T03:52:54.815Z,180.83
2022-12-23T03:56:13.367Z,176.27
2022-12-23T03:59:27.165Z,170.06
2022-12-23T04:02:55.324Z,164.10
2022-12-23T04:06:08.823Z,162.84
2022-12-23T04:09:22.232Z,151.77
2022-12-23T04:12:33.512Z,136.72
2022-12-23T04:15:44.892Z,126.72
2022-12-23T04:18:50.771Z,129.38
2022-12-23T04:21:59.968Z,123.00
2022-12-23T04:25:19.134Z,118.52
2022-12-23T04:28:28.286Z,120.39
2022-12-23T04:31:34.383Z,116.80
2022-12-23T04:34:40.919Z,117.13
2022-12-23T04:37:46.616Z,109.48
2022-12-23T04:40:53.282Z,103.67
2022-12-23T04:44:01.705Z,108.20
2022-12-23T04:47:11.243Z,109.32
2022-12-23T04:50:20.688Z,113.14
2022-12-23T04:53:27.258Z,112.24
2022-12-23T04:56:33.137Z,102.11
2022-12-23T04:59:42.417Z,106.11
2022-12-23T05:02:48.372Z,98.31
2022-12-23T05:05:55.061Z,94.39
2022-12-23T05:09:00.812Z,102.11
2022-12-23T05:12:10.824Z,87.73
2022-12-23T05:15:19.327Z,79.26
2022-12-23T05:18:27.772Z,83.94
2022-12-23T05:21:33.763Z,87.73
2022-12-23T05:24:40.332Z,93.50
2022-12-23T05:27:46.459Z,97.27
2022-12-23T05:31:02.053Z,94.25
2022-12-23T05:34:10.946Z,88.88
2022-12-23T05:37:17.589Z,94.58
2022-12-23T05:40:25.729Z,93.44
2022-12-23T05:43:38.491Z,93.53
2022-12-23T05:46:46.841Z,91.73
2022-12-23T05:49:53.365Z,92.20
2022-12-23T05:53:00.142Z,101.00
2022-12-23T05:56:09.021Z,99.17
2022-12-23T05:59:15.062Z,101.66
2022-12-23T06:02:24.966Z,98.08
2022-12-23T06:05:31.485Z,95.05
2022-12-23T06:08:38.307Z,100.59
2022-12-23T06:11:44.110Z,110.00
2022-12-23T06:14:53.179Z,113.94
2022-12-23T06:18:01.949Z,115.94
2022-12-23T06:21:11.501Z,110.45
2022-12-23T06:24:17.307Z,121.56
2022-12-23T06:27:24.103Z,124.54
2022-12-23T06:30:29.938Z,129.27
2022-12-23T06:33:39.237Z,130.93
2022-12-23T06:36:45.052Z,130.84
2022-12-23T06:39:51.674Z,139.96
2022-12-23T06:42:57.588Z,137.20
2022-12-23T06:46:04.274Z,151.17
2022-12-23T06:49:15.028Z,147.56
2022-12-23T06:52:23.163Z,142.32
2022-12-23T06:55:32.662Z,140.11
2022-12-23T06:58:40.629Z,117.84
2022-12-23T07:01:49.384Z,108.24
2022-12-23T07:04:58.631Z,117.44
2022-12-23T07:08:04.488Z,120.33
2022-12-23T07:11:11.411Z,105.84
2022-12-23T07:14:17.729Z,103.81
2022-12-23T07:17:24.387Z,103.53
2022-12-23T07:20:32.789Z,105.09
2022-12-23T07:23:39.558Z,97.20
2022-12-23T07:26:45.367Z,97.08
2022-12-23T07:29:52.067Z,97.44
2022-12-23T07:32:57.849Z,102.86
2022-12-23T07:36:07.826Z,119.46
2022-12-23T07:39:14.429Z,125.17
2022-12-23T07:42:50.937Z,141.27
2022-12-23T07:45:46.873Z,139.88
2022-12-23T07:48:53.508Z,128.60
2022-12-23T07:52:01.841Z,129.87
2022-12-23T07:55:10.097Z,120.33
2022-12-23T07:58:15.884Z,110.98
2022-12-23T08:01:24.186Z,112.27
2022-12-23T08:04:30.607Z,114.16
2022-12-23T08:07:40.187Z,115.49
2022-12-23T08:10:48.566Z,117.28
2022-12-23T08:13:55.814Z,119.30
2022-12-23T08:17:02.009Z,125.15
2022-12-23T08:20:10.990Z,127.12
2022-12-23T08:23:24.559Z,127.83
2022-12-23T08:26:31.606Z,137.18
2022-12-23T08:29:37.474Z,145.18
2022-12-23T08:32:44.096Z,148.41
2022-12-23T08:35:50.557Z,160.88
2022-12-23T08:39:02.995Z,158.01
2022-12-23T08:42:08.998Z,138.74
2022-12-23T08:45:17.245Z,137.78
2022-12-23T08:48:23.161Z,131.40
2022-12-23T08:51:31.286Z,137.51
2022-12-23T08:54:39.703Z,139.59
2022-12-23T08:57:46.242Z,147.26
2022-12-23T09:00:52.255Z,147.34
2022-12-23T09:03:59.605Z,155.11
2022-12-23T09:07:06.210Z,156.68
2022-12-23T09:10:15.423Z,150.48
2022-12-23T09:13:30.840Z,157.67
2022-12-23T09:16:42.250Z,143.77
2022-12-23T09:19:52.723Z,148.53
2022-12-23T09:22:59.867Z,153.33
2022-12-23T09:26:09.950Z,171.66
2022-12-23T09:29:16.666Z,166.94
2022-12-23T09:32:22.415Z,161.94
2022-12-23T09:35:29.157Z,170.22
2022-12-23T09:38:36.325Z,170.60
2022-12-23T09:42:09.257Z,157.63
2022-12-23T09:45:44.310Z,146.20
2022-12-23T09:49:05.662Z,150.77
2022-12-23T09:52:26.883Z,146.93
2022-12-23T09:55:49.175Z,145.95
2022-12-23T09:59:15.412Z,138.25
2022-12-23T10:02:48.299Z,132.22
2022-12-23T10:06:11.525Z,123.37
2022-12-23T10:09:21.780Z,111.01
2022-12-23T10:12:41.358Z,117.61
2022-12-23T10:15:55.463Z,109.33
2022-12-23T10:19:10.476Z,110.29
2022-12-23T10:22:27.453Z,105.66
2022-12-23T10:25:53.649Z,93.09
2022-12-23T10:29:19.222Z,100.98
2022-12-23T10:32:52.372Z,109.00
2022-12-23T10:36:15.753Z,100.89
2022-12-23T10:39:41.836Z,108.31
2022-12-23T10:43:06.340Z,109.24
2022-12-23T10:46:29.458Z,115.10
2022-12-23T10:50:04.711Z,126.02
2022-12-23T10:53:27.415Z,125.45
2022-12-23T10:56:35.772Z,138.68
2022-12-23T10:59:41.768Z,160.75
2022-12-23T11:03:15.394Z,159.45
2022-12-23T11:06:24.880Z,166.36
2022-12-23T11:09:42.764Z,170.91
2022-12-23T11:12:52.295Z,170.93
2022-12-23T11:16:19.948Z,173.41
2022-12-23T11:19:25.904Z,174.62
2022-12-23T11:34:54.996Z,178.55
2022-12-23T11:38:24.633Z,181.68
2022-12-23T11:41:38.173Z,223.97
2022-12-23T11:44:51.698Z,192.34
2022-12-23T11:47:59.285Z,176.44
2022-12-23T11:51:07.710Z,178.94
2022-12-23T11:54:23.561Z,189.24
2022-12-23T11:57:45.315Z,188.32
2022-12-23T12:00:59.460Z,199.13
2022-12-23T12:04:12.184Z,191.27
2022-12-23T12:07:22.127Z,186.44
2022-12-23T12:10:37.565Z,190.89
2022-12-23T12:13:48.189Z,202.59
2022-12-23T12:17:06.898Z,200.77
2022-12-23T12:20:29.294Z,186.73
2022-12-23T12:23:47.154Z,180.13
2022-12-23T12:27:04.934Z,178.51
2022-12-23T12:30:21.386Z,174.88
2022-12-23T12:33:38.852Z,150.27
2022-12-23T12:36:58.315Z,139.63
2022-12-23T12:40:11.258Z,128.82
2022-12-23T12:43:32.686Z,129.46
2022-12-23T12:46:49.029Z,141.98
2022-12-23T12:50:05.147Z,147.97
2022-12-23T12:53:21.878Z,148.38
2022-12-23T12:56:38.016Z,146.73
2022-12-23T12:59:52.156Z,158.20
2022-12-23T13:03:41.120Z,147.93
2022-12-23T13:07:10.585Z,152.14
2022-12-23T13:10:41.346Z,180.34
2022-12-23T13:14:05.108Z,179.41
2022-12-23T13:17:26.661Z,207.07
2022-12-23T13:20:45.292Z,203.64
2022-12-23T13:24:04.377Z,154.53
2022-12-23T13:27:19.660Z,133.40
2022-12-23T13:30:35.099Z,126.67
2022-12-23T13:34:01.196Z,139.73
2022-12-23T13:37:27.755Z,134.19
2022-12-23T13:40:47.563Z,134.21
2022-12-23T13:44:02.299Z,136.65
2022-12-23T13:47:26.367Z,147.16
2022-12-23T13:50:47.810Z,154.32
2022-12-23T13:54:14.865Z,152.76
2022-12-23T13:57:48.270Z,155.99
2022-12-23T14:01:22.249Z,156.08
2022-12-23T14:04:39.670Z,154.99
2022-12-23T14:07:48.480Z,159.62
2022-12-23T14:11:00.393Z,169.75
2022-12-23T14:14:17.885Z,176.55
2022-12-23T14:17:40.211Z,178.88
2022-12-23T14:20:58.863Z,174.46
2022-12-23T14:24:48.506Z,177.15
2022-12-23T14:28:16.373Z,177.29
2022-12-23T14:31:46.410Z,166.45
2022-12-23T14:35:23.148Z,167.68
2022-12-23T14:38:33.923Z,200.32
2022-12-23T14:41:52.777Z,199.49
2022-12-23T14:45:36.845Z,195.68
2022-12-23T14:49:38.195Z,208.99
2022-12-23T14:53:01.741Z,200.07
2022-12-23T14:56:26.478Z,237.82
2022-12-23T14:59:51.542Z,196.63
2022-12-23T15:03:03.659Z,192.11
2022-12-23T15:06:21.147Z,185.33
2022-12-23T15:09:31.760Z,188.13
2022-12-23T15:12:43.170Z,184.91
2022-12-23T15:16:02.005Z,191.33
2022-12-23T15:19:24.049Z,214.55
2022-12-23T15:22:35.487Z,224.70
2022-12-23T15:25:48.871Z,211.80
2022-12-23T15:28:54.754Z,222.28
2022-12-23T15:32:05.785Z,237.60
2022-12-23T15:35:26.372Z,225.16
2022-12-23T15:38:40.278Z,221.95
2022-12-23T15:41:49.445Z,215.43
2022-12-23T15:44:57.251Z,251.23
2022-12-23T15:48:08.584Z,283.84
2022-12-23T15:51:49.515Z,244.11
2022-12-23T15:55:03.911Z,322.14
2022-12-23T15:58:11.273Z,197.20
2022-12-23T16:01:22.220Z,203.14
2022-12-23T16:04:33.130Z,193.98
2022-12-23T16:07:44.462Z,209.67
2022-12-23T16:11:06.444Z,220.24
2022-12-23T16:14:40.539Z,222.47
2022-12-23T16:17:47.136Z,207.52
2022-12-23T16:21:00.660Z,197.69
2022-12-23T16:24:12.527Z,200.52
2022-12-23T16:27:22.070Z,201.88
2022-12-23T16:30:35.774Z,206.80
2022-12-23T16:33:47.685Z,197.19
2022-12-23T16:36:56.789Z,198.96
2022-12-23T16:40:05.946Z,219.35
2022-12-23T16:43:13.334Z,194.07
2022-12-23T16:46:23.074Z,243.19
2022-12-23T16:49:34.739Z,309.34
2022-12-23T16:52:43.654Z,209.00
2022-12-23T16:55:55.350Z,208.72
2022-12-23T16:59:04.857Z,228.78
2022-12-23T17:02:28.271Z,252.57
2022-12-23T17:05:34.228Z,248.24
2022-12-23T17:08:43.556Z,237.96
2022-12-23T17:11:53.884Z,370.93
2022-12-23T17:15:01.949Z,260.93
2022-12-23T17:18:15.939Z,305.85
2022-12-23T17:21:27.854Z,231.05
2022-12-23T17:24:36.143Z,242.93
2022-12-23T17:27:45.578Z,232.03
2022-12-23T17:30:58.071Z,238.66
2022-12-23T17:34:11.799Z,238.21
2022-12-23T17:37:19.761Z,253.08
2022-12-23T17:40:28.952Z,296.63
2022-12-23T17:43:34.655Z,269.17
2022-12-23T17:46:41.112Z,253.99
2022-12-23T17:49:48.944Z,250.98
2022-12-23T17:52:56.115Z,259.63
2022-12-23T17:56:04.317Z,430.61
2022-12-23T17:59:10.921Z,302.66
2022-12-23T18:02:32.948Z,338.35
2022-12-23T18:05:39.528Z,276.37
2022-12-23T18:08:45.435Z,286.19
2022-12-23T18:11:56.231Z,291.84
2022-12-23T18:15:02.347Z,286.56
2022-12-23T18:18:26.056Z,282.02
2022-12-23T18:21:35.689Z,282.07
2022-12-23T18:24:42.158Z,280.82
2022-12-23T18:27:52.529Z,278.81
2022-12-23T18:31:01.282Z,301.40
2022-12-23T18:34:07.105Z,292.94
2022-12-23T18:37:14.480Z,263.83
2022-12-23T18:40:32.432Z,362.55
2022-12-23T18:43:42.129Z,350.90
2022-12-23T18:46:50.994Z,420.46
2022-12-23T18:49:58.054Z,227.64
2022-12-23T18:53:04.994Z,221.59
2022-12-23T18:56:21.160Z,199.41
2022-12-23T18:59:31.791Z,201.11
2022-12-23T19:02:38.705Z,201.45
2022-12-23T19:05:44.329Z,191.49
2022-12-23T19:08:51.402Z,188.23
2022-12-23T19:11:58.125Z,195.63
2022-12-23T19:15:10.930Z,318.65
2022-12-23T19:18:18.793Z,272.06
2022-12-23T19:21:28.820Z,185.01
2022-12-23T19:24:36.532Z,193.60
2022-12-23T19:27:47.770Z,191.27
2022-12-23T19:30:56.871Z,180.90
2022-12-23T19:34:03.991Z,175.59
2022-12-23T19:37:14.401Z,355.73
2022-12-23T19:40:24.550Z,197.39
2022-12-23T19:43:30.445Z,176.39
2022-12-23T19:46:40.029Z,178.14
2022-12-23T19:49:51.924Z,224.75
2022-12-23T19:53:01.147Z,177.06
2022-12-23T19:56:11.146Z,219.72
2022-12-23T19:59:19.081Z,254.16
2022-12-23T20:02:28.450Z,192.28
2022-12-23T20:05:37.393Z,217.87
2022-12-23T20:08:44.067Z,186.13
2022-12-23T20:11:53.240Z,182.96
2022-12-23T20:14:59.681Z,206.12
2022-12-23T20:18:12.299Z,226.03
2022-12-23T20:21:20.168Z,178.67
2022-12-23T20:24:27.013Z,155.25
2022-12-23T20:27:33.910Z,204.16
2022-12-23T20:30:42.709Z,332.46
2022-12-23T20:33:53.895Z,216.30
2022-12-23T20:37:04.816Z,275.72
2022-12-23T20:40:17.776Z,217.53
2022-12-23T20:43:24.404Z,222.28
2022-12-23T20:46:30.402Z,185.06
2022-12-23T20:49:40.862Z,177.66
2022-12-23T20:52:47.225Z,177.16
2022-12-23T20:56:02.795Z,179.92
2022-12-23T20:59:08.485Z,177.88
2022-12-23T21:02:16.577Z,139.77
2022-12-23T21:05:25.063Z,144.10
2022-12-23T21:08:31.750Z,147.86
2022-12-23T21:11:41.536Z,143.93
2022-12-23T21:14:48.099Z,132.29
2022-12-23T21:17:53.971Z,130.53
2022-12-23T21:21:11.302Z,127.65
2022-12-23T21:24:20.952Z,126.23
2022-12-23T21:27:27.801Z,126.97
2022-12-23T21:30:37.806Z,142.07
2022-12-23T21:33:48.436Z,130.97
2022-12-23T21:36:56.694Z,117.39
2022-12-23T21:40:03.843Z,117.37
2022-12-23T21:43:09.499Z,120.95
2022-12-23T21:46:23.216Z,113.56
2022-12-23T21:49:28.812Z,104.02
2022-12-23T21:52:40.663Z,107.94
2022-12-23T21:55:46.708Z,111.62
2022-12-23T21:58:54.004Z,108.02
2022-12-23T22:02:01.477Z,115.62
2022-12-23T22:05:10.391Z,112.71
2022-12-23T22:08:22.846Z,119.00
2022-12-23T22:11:34.475Z,134.18
2022-12-23T22:14:40.662Z,135.01
2022-12-23T22:17:47.096Z,128.15
2022-12-23T22:20:53.185Z,166.29
2022-12-23T22:24:04.299Z,152.94
2022-12-23T22:27:10.397Z,125.85
2022-12-23T22:30:18.033Z,126.71
2022-12-23T22:33:25.217Z,118.19
2022-12-23T22:36:32.940Z,118.67
2022-12-23T22:39:44.138Z,119.41
2022-12-23T22:42:50.911Z,126.33
2022-12-23T22:45:59.881Z,142.04
2022-12-23T22:49:07.391Z,113.42
2022-12-23T22:52:13.279Z,155.62
2022-12-23T22:55:26.316Z,127.20
2022-12-23T22:58:34.633Z,274.37
2022-12-23T23:01:41.385Z,157.25
2022-12-23T23:04:50.569Z,150.82
2022-12-23T23:07:57.330Z,146.23
2022-12-23T23:11:08.809Z,168.27
2022-12-23T23:14:16.454Z,177.80
2022-12-23T23:17:22.766Z,144.02
2022-12-23T23:20:29.321Z,164.46
2022-12-23T23:23:35.156Z,152.49
2022-12-23T23:26:44.607Z,151.82
2022-12-23T23:29:50.401Z,162.55
2022-12-23T23:32:56.974Z,171.56
2022-12-23T23:36:03.208Z,155.51
2022-12-23T23:39:09.805Z,160.50
2022-12-23T23:42:18.286Z,194.47
2022-12-23T23:45:24.764Z,171.45
2022-12-23T23:48:33.299Z,165.66
2022-12-23T23:51:40.432Z,203.55
2022-12-23T23:54:46.475Z,157.76
2022-12-23T23:57:55.677Z,155.43
